sensor_id;sensor_type;location;lat;lon;timestamp;pressure;altitude;pressure_sealevel;temperature;humidity
19150;BME280;9707;49.158;8.632;2022-11-20T00:00:45;99957.59;;;18.44;38.05
19150;BME280;9707;49.158;8.632;2022-11-20T00:03:10;99950.38;;;18.45;38.02
19150;BME280;9707;49.158;8.632;2022-11-20T00:05:35;99955.78;;;18.45;38.51
19150;BME280;9707;49.158;8.632;2022-11-20T00:08:01;99957.47;;;18.46;37.88
19150;BME280;9707;49.158;8.632;2022-11-20T00:10:26;99962.88;;;18.46;37.88
19150;BME280;9707;49.158;8.632;2022-11-20T00:12:51;99952.09;;;18.46;38.13
19150;BME280;9707;49.158;8.632;2022-11-20T00:15:17;99958.47;;;18.45;37.75
19150;BME280;9707;49.158;8.632;2022-11-20T00:17:42;99955.66;;;18.46;38.34
19150;BME280;9707;49.158;8.632;2022-11-20T00:20:08;99957.47;;;18.46;37.93
19150;BME280;9707;49.158;8.632;2022-11-20T00:22:33;99953.91;;;18.45;37.92
19150;BME280;9707;49.158;8.632;2022-11-20T00:24:58;99953.06;;;18.45;38.06
19150;BME280;9707;49.158;8.632;2022-11-20T00:27:24;99951.38;;;18.44;38.12
19150;BME280;9707;49.158;8.632;2022-11-20T00:29:49;99953.91;;;18.45;37.99
19150;BME280;9707;49.158;8.632;2022-11-20T00:32:14;99947.78;;;18.43;38.13
19150;BME280;9707;49.158;8.632;2022-11-20T00:34:39;99951.38;;;18.44;37.97
19150;BME280;9707;49.158;8.632;2022-11-20T00:37:05;99935.19;;;18.44;38.12
19150;BME280;9707;49.158;8.632;2022-11-20T00:39:30;99943.28;;;18.44;38.02
19150;BME280;9707;49.158;8.632;2022-11-20T00:41:55;99949.50;;;18.44;37.85
19150;BME280;9707;49.158;8.632;2022-11-20T00:44:21;99949.50;;;18.44;37.90
19150;BME280;9707;49.158;8.632;2022-11-20T00:46:46;99943.28;;;18.44;37.90
19150;BME280;9707;49.158;8.632;2022-11-20T00:49:11;99945.09;;;18.43;38.30
19150;BME280;9707;49.158;8.632;2022-11-20T00:51:36;99948.66;;;18.44;38.21
19150;BME280;9707;49.158;8.632;2022-11-20T00:54:02;99941.53;;;18.43;38.25
19150;BME280;9707;49.158;8.632;2022-11-20T00:56:27;99952.31;;;18.43;38.24
19150;BME280;9707;49.158;8.632;2022-11-20T00:58:53;99946.91;;;18.43;38.08
19150;BME280;9707;49.158;8.632;2022-11-20T01:01:24;99955.00;;;18.43;38.09
19150;BME280;9707;49.158;8.632;2022-11-20T01:03:51;99954.16;;;18.42;38.11
19150;BME280;9707;49.158;8.632;2022-11-20T01:08:47;99944.38;;;18.41;38.11
19150;BME280;9707;49.158;8.632;2022-11-20T01:11:15;99949.75;;;18.41;37.94
19150;BME280;9707;49.158;8.632;2022-11-20T01:13:41;99947.06;;;18.41;38.33
19150;BME280;9707;49.158;8.632;2022-11-20T01:16:11;99949.88;;;18.40;38.37
19150;BME280;9707;49.158;8.632;2022-11-20T01:18:38;99943.50;;;18.41;38.47
19150;BME280;9707;49.158;8.632;2022-11-20T01:21:06;99954.28;;;18.41;38.32
19150;BME280;9707;49.158;8.632;2022-11-20T01:23:37;99944.38;;;18.41;38.63
19150;BME280;9707;49.158;8.632;2022-11-20T01:26:07;99945.22;;;18.42;38.53
19150;BME280;9707;49.158;8.632;2022-11-20T01:28:33;99954.16;;;18.42;38.50
19150;BME280;9707;49.158;8.632;2022-11-20T01:30:59;99947.91;;;18.42;38.40
19150;BME280;9707;49.158;8.632;2022-11-20T01:33:25;99952.31;;;18.43;38.32
19150;BME280;9707;49.158;8.632;2022-11-20T01:35:51;99942.63;;;18.40;38.26
19150;BME280;9707;49.158;8.632;2022-11-20T01:38:16;99945.22;;;18.42;38.36
19150;BME280;9707;49.158;8.632;2022-11-20T01:40:42;99947.91;;;18.42;38.21
19150;BME280;9707;49.158;8.632;2022-11-20T01:43:16;99947.19;;;18.40;38.12
19150;BME280;9707;49.158;8.632;2022-11-20T01:48:38;99939.19;;;18.38;38.36
19150;BME280;9707;49.158;8.632;2022-11-20T01:51:07;99937.38;;;18.39;38.14
19150;BME280;9707;49.158;8.632;2022-11-20T01:53:37;99938.31;;;18.38;37.89
19150;BME280;9707;49.158;8.632;2022-11-20T01:56:05;99933.81;;;18.38;38.51
19150;BME280;9707;49.158;8.632;2022-11-20T01:58:35;99932.94;;;18.38;38.64
19150;BME280;9707;49.158;8.632;2022-11-20T02:01:04;99934.69;;;18.39;38.73
19150;BME280;9707;49.158;8.632;2022-11-20T02:03:30;99932.81;;;18.39;38.66
19150;BME280;9707;49.158;8.632;2022-11-20T02:06:03;99935.53;;;18.39;38.56
19150;BME280;9707;49.158;8.632;2022-11-20T02:08:31;99926.44;;;18.40;38.68
19150;BME280;9707;49.158;8.632;2022-11-20T02:10:57;99921.91;;;18.41;38.63
19150;BME280;9707;49.158;8.632;2022-11-20T02:13:22;99927.31;;;18.41;38.68
19150;BME280;9707;49.158;8.632;2022-11-20T02:16:14;99927.31;;;18.41;38.50
19150;BME280;9707;49.158;8.632;2022-11-20T02:18:41;99931.00;;;18.40;38.33
19150;BME280;9707;49.158;8.632;2022-11-20T02:21:20;99937.38;;;18.39;38.34
19150;BME280;9707;49.158;8.632;2022-11-20T02:26:21;99924.13;;;18.36;38.57
19150;BME280;9707;49.158;8.632;2022-11-20T02:28:48;99924.13;;;18.36;38.45
19150;BME280;9707;49.158;8.632;2022-11-20T02:31:13;99925.00;;;18.36;38.58
19150;BME280;9707;49.158;8.632;2022-11-20T02:33:39;99923.13;;;18.37;38.75
19150;BME280;9707;49.158;8.632;2022-11-20T02:36:04;99917.75;;;18.37;38.90
19150;BME280;9707;49.158;8.632;2022-11-20T02:38:30;99918.50;;;18.39;38.79
19150;BME280;9707;49.158;8.632;2022-11-20T02:40:55;99915.81;;;18.39;38.94
19150;BME280;9707;49.158;8.632;2022-11-20T02:43:20;99913.09;;;18.39;38.96
19150;BME280;9707;49.158;8.632;2022-11-20T02:45:45;99914.81;;;18.40;38.98
19150;BME280;9707;49.158;8.632;2022-11-20T02:48:11;99908.44;;;18.41;38.95
19150;BME280;9707;49.158;8.632;2022-11-20T02:50:37;99904.75;;;18.42;39.14
19150;BME280;9707;49.158;8.632;2022-11-20T02:53:03;99902.94;;;18.42;39.06
19150;BME280;9707;49.158;8.632;2022-11-20T02:55:29;99898.38;;;18.43;38.97
19150;BME280;9707;49.158;8.632;2022-11-20T02:57:54;99891.28;;;18.42;38.95
19150;BME280;9707;49.158;8.632;2022-11-20T03:00:19;99898.38;;;18.43;38.97
19150;BME280;9707;49.158;8.632;2022-11-20T03:02:45;99899.25;;;18.43;39.11
19150;BME280;9707;49.158;8.632;2022-11-20T03:05:10;99898.38;;;18.43;39.10
19150;BME280;9707;49.158;8.632;2022-11-20T03:07:35;99895.69;;;18.43;39.09
19150;BME280;9707;49.158;8.632;2022-11-20T03:10:00;99894.72;;;18.44;39.03
19150;BME280;9707;49.158;8.632;2022-11-20T03:12:26;99894.84;;;18.42;38.97
19150;BME280;9707;49.158;8.632;2022-11-20T03:14:51;99891.28;;;18.42;38.94
19150;BME280;9707;49.158;8.632;2022-11-20T03:17:16;99893.97;;;18.42;38.86
19150;BME280;9707;49.158;8.632;2022-11-20T03:19:41;99895.81;;;18.41;38.98
19150;BME280;9707;49.158;8.632;2022-11-20T03:22:07;99896.66;;;18.42;39.23
19150;BME280;9707;49.158;8.632;2022-11-20T03:24:32;99892.16;;;18.42;39.17
19150;BME280;9707;49.158;8.632;2022-11-20T03:26:57;99883.19;;;18.42;39.17
19150;BME280;9707;49.158;8.632;2022-11-20T03:29:23;99885.88;;;18.42;39.29
19150;BME280;9707;49.158;8.632;2022-11-20T03:31:48;99876.81;;;18.43;39.21
19150;BME280;9707;49.158;8.632;2022-11-20T03:34:13;99886.63;;;18.44;39.40
19150;BME280;9707;49.158;8.632;2022-11-20T03:36:40;99888.34;;;18.45;39.30
19150;BME280;9707;49.158;8.632;2022-11-20T03:39:06;99885.66;;;18.45;39.44
19150;BME280;9707;49.158;8.632;2022-11-20T03:41:36;99880.25;;;18.45;39.43
19150;BME280;9707;49.158;8.632;2022-11-20T03:44:04;99879.28;;;18.46;39.43
19150;BME280;9707;49.158;8.632;2022-11-20T03:46:30;99887.38;;;18.46;39.43
19150;BME280;9707;49.158;8.632;2022-11-20T03:48:55;99883.69;;;18.47;39.28
19150;BME280;9707;49.158;8.632;2022-11-20T03:51:26;99887.38;;;18.46;39.42
19150;BME280;9707;49.158;8.632;2022-11-20T03:53:53;99873.88;;;18.46;39.63
19150;BME280;9707;49.158;8.632;2022-11-20T03:56:23;99884.56;;;18.47;39.72
19150;BME280;9707;49.158;8.632;2022-11-20T03:58:48;99890.78;;;18.48;39.87
19150;BME280;9707;49.158;8.632;2022-11-20T04:01:18;99888.97;;;18.48;39.93
19150;BME280;9707;49.158;8.632;2022-11-20T04:03:44;99896.06;;;18.49;39.74
19150;BME280;9707;49.158;8.632;2022-11-20T04:06:15;99883.44;;;18.50;39.84
19150;BME280;9707;49.158;8.632;2022-11-20T04:08:41;99888.84;;;18.50;39.92
19150;BME280;9707;49.158;8.632;2022-11-20T04:11:14;99889.69;;;18.50;40.03
19150;BME280;9707;49.158;8.632;2022-11-20T04:13:41;99882.47;;;18.51;40.10
19150;BME280;9707;49.158;8.632;2022-11-20T04:16:08;99883.44;;;18.50;40.29
19150;BME280;9707;49.158;8.632;2022-11-20T04:18:35;99885.28;;;18.49;40.04
19150;BME280;9707;49.158;8.632;2022-11-20T04:21:00;99886.16;;;18.50;40.19
19150;BME280;9707;49.158;8.632;2022-11-20T04:23:26;99880.00;;;18.48;39.88
19150;BME280;9707;49.158;8.632;2022-11-20T04:25:52;99874.59;;;18.48;40.07
19150;BME280;9707;49.158;8.632;2022-11-20T04:28:17;99875.47;;;18.48;40.17
19150;BME280;9707;49.158;8.632;2022-11-20T04:30:43;99877.31;;;18.48;40.07
19150;BME280;9707;49.158;8.632;2022-11-20T04:33:08;99877.19;;;18.49;40.26
19150;BME280;9707;49.158;8.632;2022-11-20T04:35:34;99870.94;;;18.49;40.04
19150;BME280;9707;49.158;8.632;2022-11-20T04:37:59;99872.66;;;18.50;40.21
19150;BME280;9707;49.158;8.632;2022-11-20T04:40:25;99868.97;;;18.51;40.11
19150;BME280;9707;49.158;8.632;2022-11-20T04:42:50;99868.97;;;18.51;40.06
19150;BME280;9707;49.158;8.632;2022-11-20T04:45:15;99872.66;;;18.50;40.17
19150;BME280;9707;49.158;8.632;2022-11-20T04:47:41;99882.47;;;18.51;39.99
19150;BME280;9707;49.158;8.632;2022-11-20T04:50:06;99869.09;;;18.49;40.07
19150;BME280;9707;49.158;8.632;2022-11-20T04:52:32;99876.34;;;18.49;40.14
19150;BME280;9707;49.158;8.632;2022-11-20T04:54:57;99875.34;;;18.50;40.14
19150;BME280;9707;49.158;8.632;2022-11-20T04:57:22;99868.09;;;18.50;40.20
19150;BME280;9707;49.158;8.632;2022-11-20T04:59:47;99875.25;;;18.51;40.05
19150;BME280;9707;49.158;8.632;2022-11-20T05:02:13;99862.72;;;18.50;39.98
19150;BME280;9707;49.158;8.632;2022-11-20T05:04:38;99858.31;;;18.49;40.15
19150;BME280;9707;49.158;8.632;2022-11-20T05:07:03;99869.84;;;18.51;40.18
19150;BME280;9707;49.158;8.632;2022-11-20T05:09:29;99859.91;;;18.52;40.00
19150;BME280;9707;49.158;8.632;2022-11-20T05:11:54;99852.78;;;18.51;39.83
19150;BME280;9707;49.158;8.632;2022-11-20T05:14:20;99851.81;;;18.52;40.01
19150;BME280;9707;49.158;8.632;2022-11-20T05:16:45;99858.06;;;18.52;40.15
19150;BME280;9707;49.158;8.632;2022-11-20T05:19:10;99850.81;;;18.53;40.09
19150;BME280;9707;49.158;8.632;2022-11-20T05:21:36;99850.81;;;18.53;40.27
19150;BME280;9707;49.158;8.632;2022-11-20T05:24:01;99848.13;;;18.53;40.00
19150;BME280;9707;49.158;8.632;2022-11-20T05:26:26;99854.41;;;18.53;40.11
19150;BME280;9707;49.158;8.632;2022-11-20T05:28:52;99855.38;;;18.52;40.06
19150;BME280;9707;49.158;8.632;2022-11-20T05:31:19;99856.22;;;18.53;39.96
19150;BME280;9707;49.158;8.632;2022-11-20T05:33:46;99857.09;;;18.53;39.85
19150;BME280;9707;49.158;8.632;2022-11-20T05:36:13;99850.81;;;18.53;39.89
19150;BME280;9707;49.158;8.632;2022-11-20T05:38:39;99850.81;;;18.53;39.91
19150;BME280;9707;49.158;8.632;2022-11-20T05:41:15;99861.63;;;18.53;40.07
19150;BME280;9707;49.158;8.632;2022-11-20T05:43:43;99853.66;;;18.51;39.69
19150;BME280;9707;49.158;8.632;2022-11-20T05:46:12;99852.78;;;18.51;39.90
19150;BME280;9707;49.158;8.632;2022-11-20T05:48:38;99858.19;;;18.51;39.82
19150;BME280;9707;49.158;8.632;2022-11-20T05:51:06;99856.47;;;18.50;39.82
19150;BME280;9707;49.158;8.632;2022-11-20T05:53:33;99859.06;;;18.51;39.87
19150;BME280;9707;49.158;8.632;2022-11-20T05:56:04;99860.88;;;18.51;39.92
19150;BME280;9707;49.158;8.632;2022-11-20T05:58:30;99857.19;;;18.52;39.95
19150;BME280;9707;49.158;8.632;2022-11-20T06:01:04;99858.91;;;18.53;39.82
19150;BME280;9707;49.158;8.632;2022-11-20T06:03:29;99858.06;;;18.52;39.70
19150;BME280;9707;49.158;8.632;2022-11-20T06:05:55;99858.19;;;18.51;39.74
19150;BME280;9707;49.158;8.632;2022-11-20T06:08:20;99866.16;;;18.52;39.79
19150;BME280;9707;49.158;8.632;2022-11-20T06:10:45;99860.78;;;18.52;39.83
19150;BME280;9707;49.158;8.632;2022-11-20T06:13:10;99876.09;;;18.52;39.75
19150;BME280;9707;49.158;8.632;2022-11-20T06:15:36;99870.69;;;18.52;39.73
19150;BME280;9707;49.158;8.632;2022-11-20T06:18:01;99868.97;;;18.51;39.36
19150;BME280;9707;49.158;8.632;2022-11-20T06:20:26;99869.84;;;18.51;39.87
19150;BME280;9707;49.158;8.632;2022-11-20T06:22:52;99860.16;;;18.49;39.88
19150;BME280;9707;49.158;8.632;2022-11-20T06:25:17;99864.56;;;18.50;39.71
19150;BME280;9707;49.158;8.632;2022-11-20T06:27:42;99867.38;;;18.48;39.87
19150;BME280;9707;49.158;8.632;2022-11-20T06:30:08;99869.22;;;18.48;40.07
19150;BME280;9707;49.158;8.632;2022-11-20T06:32:34;99870.94;;;18.49;40.05
19150;BME280;9707;49.158;8.632;2022-11-20T06:34:59;99878.06;;;18.50;40.02
19150;BME280;9707;49.158;8.632;2022-11-20T06:37:24;99875.25;;;18.51;40.17
19150;BME280;9707;49.158;8.632;2022-11-20T06:39:49;99872.41;;;18.53;40.28
19150;BME280;9707;49.158;8.632;2022-11-20T06:42:15;99873.28;;;18.53;40.00
19150;BME280;9707;49.158;8.632;2022-11-20T06:44:40;99879.53;;;18.54;39.82
19150;BME280;9707;49.158;8.632;2022-11-20T06:47:08;99878.66;;;18.53;39.96
19150;BME280;9707;49.158;8.632;2022-11-20T06:49:33;99874.16;;;18.54;40.07
19150;BME280;9707;49.158;8.632;2022-11-20T06:51:59;99874.97;;;18.54;39.91
19150;BME280;9707;49.158;8.632;2022-11-20T06:54:24;99885.78;;;18.54;40.28
19150;BME280;9707;49.158;8.632;2022-11-20T06:56:50;99879.53;;;18.54;39.86
19150;BME280;9707;49.158;8.632;2022-11-20T06:59:15;99876.84;;;18.54;39.78
19150;BME280;9707;49.158;8.632;2022-11-20T07:01:40;99883.19;;;18.53;40.01
19150;BME280;9707;49.158;8.632;2022-11-20T07:04:06;99886.88;;;18.52;39.91
19150;BME280;9707;49.158;8.632;2022-11-20T07:06:31;99884.19;;;18.52;39.99
19150;BME280;9707;49.158;8.632;2022-11-20T07:08:57;99886.88;;;18.52;40.09
19150;BME280;9707;49.158;8.632;2022-11-20T07:11:22;99886.88;;;18.52;40.07
19150;BME280;9707;49.158;8.632;2022-11-20T07:13:48;99887.75;;;18.52;39.83
19150;BME280;9707;49.158;8.632;2022-11-20T07:16:13;99892.28;;;18.52;39.99
19150;BME280;9707;49.158;8.632;2022-11-20T07:18:38;99894.97;;;18.52;39.86
19150;BME280;9707;49.158;8.632;2022-11-20T07:21:06;99894.97;;;18.52;40.06
19150;BME280;9707;49.158;8.632;2022-11-20T07:23:32;99908.44;;;18.52;39.98
19150;BME280;9707;49.158;8.632;2022-11-20T07:25:58;99912.13;;;18.51;40.02
19150;BME280;9707;49.158;8.632;2022-11-20T07:28:23;99910.41;;;18.50;40.10
19150;BME280;9707;49.158;8.632;2022-11-20T07:30:52;99915.81;;;18.50;40.12
19150;BME280;9707;49.158;8.632;2022-11-20T07:33:19;99915.81;;;18.50;40.11
19150;BME280;9707;49.158;8.632;2022-11-20T07:35:44;99915.81;;;18.50;40.31
19150;BME280;9707;49.158;8.632;2022-11-20T07:38:10;99912.13;;;18.51;40.25
19150;BME280;9707;49.158;8.632;2022-11-20T07:40:35;99918.41;;;18.51;40.16
19150;BME280;9707;49.158;8.632;2022-11-20T07:43:00;99916.44;;;18.53;40.47
19150;BME280;9707;49.158;8.632;2022-11-20T07:45:26;99923.66;;;18.53;40.18
19150;BME280;9707;49.158;8.632;2022-11-20T07:47:51;99916.53;;;18.52;40.34
19150;BME280;9707;49.158;8.632;2022-11-20T07:50:17;99910.31;;;18.51;40.32
19150;BME280;9707;49.158;8.632;2022-11-20T07:52:42;99915.69;;;18.51;40.33
19150;BME280;9707;49.158;8.632;2022-11-20T07:55:09;99921.22;;;18.50;39.95
19150;BME280;9707;49.158;8.632;2022-11-20T07:57:35;99922.91;;;18.51;40.42
19150;BME280;9707;49.158;8.632;2022-11-20T08:00:01;99919.50;;;18.49;40.42
19150;BME280;9707;49.158;8.632;2022-11-20T08:02:27;99920.34;;;18.49;40.31
19150;BME280;9707;49.158;8.632;2022-11-20T08:04:52;99923.91;;;18.50;40.16
19150;BME280;9707;49.158;8.632;2022-11-20T08:07:17;99925.72;;;18.49;40.11
19150;BME280;9707;49.158;8.632;2022-11-20T08:09:43;99931.25;;;18.48;40.21
19150;BME280;9707;49.158;8.632;2022-11-20T08:12:17;99933.94;;;18.48;39.87
19150;BME280;9707;49.158;8.632;2022-11-20T08:15:01;99932.34;;;18.45;40.16
19150;BME280;9707;49.158;8.632;2022-11-20T08:17:26;99950.38;;;18.45;40.36
19150;BME280;9707;49.158;8.632;2022-11-20T08:19:52;99952.09;;;18.46;40.10
19150;BME280;9707;49.158;8.632;2022-11-20T08:22:17;99944.97;;;18.45;40.45
19150;BME280;9707;49.158;8.632;2022-11-20T08:24:42;99936.78;;;18.46;40.61
19150;BME280;9707;49.158;8.632;2022-11-20T08:27:07;99929.41;;;18.48;40.40
19150;BME280;9707;49.158;8.632;2022-11-20T08:29:33;99914.22;;;18.47;40.60
19150;BME280;9707;49.158;8.632;2022-11-20T08:31:58;99923.16;;;18.48;40.10
19150;BME280;9707;49.158;8.632;2022-11-20T08:34:23;99926.00;;;18.46;40.46
19150;BME280;9707;49.158;8.632;2022-11-20T08:36:49;99930.63;;;18.44;40.40
19150;BME280;9707;49.158;8.632;2022-11-20T08:39:14;99925.22;;;18.44;40.68
19150;BME280;9707;49.158;8.632;2022-11-20T08:41:39;99930.50;;;18.46;40.64
19150;BME280;9707;49.158;8.632;2022-11-20T08:44:06;99932.22;;;18.47;40.42
19150;BME280;9707;49.158;8.632;2022-11-20T08:46:36;99936.78;;;18.46;40.71
19150;BME280;9707;49.158;8.632;2022-11-20T08:49:03;99943.00;;;18.47;40.42
19150;BME280;9707;49.158;8.632;2022-11-20T08:51:29;99939.31;;;18.48;40.70
19150;BME280;9707;49.158;8.632;2022-11-20T08:53:54;99938.22;;;18.50;40.81
19150;BME280;9707;49.158;8.632;2022-11-20T08:56:20;99936.53;;;18.49;40.76
19150;BME280;9707;49.158;8.632;2022-11-20T08:58:45;99941.91;;;18.49;40.79
19150;BME280;9707;49.158;8.632;2022-11-20T09:01:10;99938.22;;;18.50;40.87
19150;BME280;9707;49.158;8.632;2022-11-20T09:03:36;99938.22;;;18.50;41.00
19150;BME280;9707;49.158;8.632;2022-11-20T09:06:03;99947.09;;;18.52;40.85
19150;BME280;9707;49.158;8.632;2022-11-20T09:08:29;99941.81;;;18.51;40.86
19150;BME280;9707;49.158;8.632;2022-11-20T09:10:56;99949.91;;;18.51;40.82
19150;BME280;9707;49.158;8.632;2022-11-20T09:13:22;99952.59;;;18.51;40.76
19150;BME280;9707;49.158;8.632;2022-11-20T09:18:20;99957.88;;;18.52;40.71
19150;BME280;9707;49.158;8.632;2022-11-20T09:20:45;99949.91;;;18.51;40.78
19150;BME280;9707;49.158;8.632;2022-11-20T09:23:11;99946.22;;;18.52;40.93
19150;BME280;9707;49.158;8.632;2022-11-20T09:25:36;99942.53;;;18.53;41.11
19150;BME280;9707;49.158;8.632;2022-11-20T09:28:01;99947.09;;;18.52;40.89
19150;BME280;9707;49.158;8.632;2022-11-20T09:30:27;99948.91;;;18.52;40.83
19150;BME280;9707;49.158;8.632;2022-11-20T09:32:52;99945.22;;;18.53;40.85
19150;BME280;9707;49.158;8.632;2022-11-20T09:35:18;99952.47;;;18.52;40.89
19150;BME280;9707;49.158;8.632;2022-11-20T09:37:44;99946.09;;;18.53;41.09
19150;BME280;9707;49.158;8.632;2022-11-20T09:40:29;99949.53;;;18.55;41.32
19150;BME280;9707;49.158;8.632;2022-11-20T09:45:54;99945.72;;;18.58;41.17
19150;BME280;9707;49.158;8.632;2022-11-20T09:51:34;99959.22;;;18.58;41.32
19150;BME280;9707;49.158;8.632;2022-11-20T09:54:15;99954.56;;;18.60;41.42
19150;BME280;9707;49.158;8.632;2022-11-20T09:56:45;99964.38;;;18.61;41.16
19150;BME280;9707;49.158;8.632;2022-11-20T09:59:33;99970.75;;;18.60;41.28
19150;BME280;9707;49.158;8.632;2022-11-20T10:02:01;99968.78;;;18.62;41.24
19150;BME280;9707;49.158;8.632;2022-11-20T10:04:30;99963.41;;;18.62;41.33
19150;BME280;9707;49.158;8.632;2022-11-20T10:07:07;99974.94;;;18.64;41.32
19150;BME280;9707;49.158;8.632;2022-11-20T10:09:44;99971.38;;;18.63;41.21
19150;BME280;9707;49.158;8.632;2022-11-20T10:12:22;99973.97;;;18.65;41.33
19150;BME280;9707;49.158;8.632;2022-11-20T10:23:53;99970.28;;;18.66;41.17
19150;BME280;9707;49.158;8.632;2022-11-20T10:29:34;99965.75;;;18.66;41.12
19150;BME280;9707;49.158;8.632;2022-11-20T10:32:04;99972.97;;;18.66;41.35
19150;BME280;9707;49.158;8.632;2022-11-20T10:39:58;99972.00;;;18.67;40.95
19150;BME280;9707;49.158;8.632;2022-11-20T10:42:40;99972.00;;;18.67;41.27
19150;BME280;9707;49.158;8.632;2022-11-20T10:45:19;99959.25;;;18.69;41.19
19150;BME280;9707;49.158;8.632;2022-11-20T10:47:46;99951.88;;;18.71;41.21
19150;BME280;9707;49.158;8.632;2022-11-20T10:50:17;99952.63;;;18.73;41.22
19150;BME280;9707;49.158;8.632;2022-11-20T10:53:14;99964.16;;;18.75;41.33
19150;BME280;9707;49.158;8.632;2022-11-20T10:55:47;99949.69;;;18.76;41.46
19150;BME280;9707;49.158;8.632;2022-11-20T10:58:50;99947.88;;;18.76;41.66
19150;BME280;9707;49.158;8.632;2022-11-20T11:01:20;99943.06;;;18.80;41.40
19150;BME280;9707;49.158;8.632;2022-11-20T11:03:48;99947.38;;;18.82;41.38
19150;BME280;9707;49.158;8.632;2022-11-20T11:06:33;99936.47;;;18.84;41.23
19150;BME280;9707;49.158;8.632;2022-11-20T11:09:08;99930.91;;;18.85;41.31
19150;BME280;9707;49.158;8.632;2022-11-20T11:11:38;99938.91;;;18.87;41.12
19150;BME280;9707;49.158;8.632;2022-11-20T11:14:07;99929.97;;;18.86;40.92
19150;BME280;9707;49.158;8.632;2022-11-20T11:16:33;99930.81;;;18.87;41.07
19150;BME280;9707;49.158;8.632;2022-11-20T11:19:05;99914.59;;;18.87;40.85
19150;BME280;9707;49.158;8.632;2022-11-20T11:21:30;99915.47;;;18.87;41.00
19150;BME280;9707;49.158;8.632;2022-11-20T11:23:59;99915.38;;;18.89;41.10
19150;BME280;9707;49.158;8.632;2022-11-20T11:26:24;99913.38;;;18.91;40.93
19150;BME280;9707;49.158;8.632;2022-11-20T11:29:04;99904.41;;;18.90;40.98
19150;BME280;9707;49.158;8.632;2022-11-20T11:31:34;99902.59;;;18.91;41.07
19150;BME280;9707;49.158;8.632;2022-11-20T11:34:13;99897.06;;;18.92;40.99
19150;BME280;9707;49.158;8.632;2022-11-20T11:36:39;99899.66;;;18.94;40.76
19150;BME280;9707;49.158;8.632;2022-11-20T11:39:10;99903.94;;;18.96;40.47
19150;BME280;9707;49.158;8.632;2022-11-20T11:41:36;99894.00;;;18.97;40.50
19150;BME280;9707;49.158;8.632;2022-11-20T11:44:27;99886.88;;;18.96;40.77
19150;BME280;9707;49.158;8.632;2022-11-20T11:47:24;99883.19;;;18.97;40.49
19150;BME280;9707;49.158;8.632;2022-11-20T11:52:54;99875.97;;;18.97;40.44
19150;BME280;9707;49.158;8.632;2022-11-20T12:00:51;99877.09;;;18.95;39.38
19150;BME280;9707;49.158;8.632;2022-11-20T12:03:24;99879.66;;;18.96;39.37
19150;BME280;9707;49.158;8.632;2022-11-20T12:06:01;99883.19;;;18.97;39.62
19150;BME280;9707;49.158;8.632;2022-11-20T12:11:29;99875.84;;;18.99;39.89
19150;BME280;9707;49.158;8.632;2022-11-20T12:14:01;99879.28;;;19.01;40.02
19150;BME280;9707;49.158;8.632;2022-11-20T12:16:33;99871.91;;;19.03;39.77
19150;BME280;9707;49.158;8.632;2022-11-20T12:19:00;99879.88;;;19.04;40.07
19150;BME280;9707;49.158;8.632;2022-11-20T12:21:42;99869.81;;;19.06;39.98
19150;BME280;9707;49.158;8.632;2022-11-20T12:30:18;99859.16;;;19.05;40.15
19150;BME280;9707;49.158;8.632;2022-11-20T12:35:58;99866.50;;;19.03;39.35
19150;BME280;9707;49.158;8.632;2022-11-20T12:52:49;99862.97;;;19.02;37.48
19150;BME280;9707;49.158;8.632;2022-11-20T12:55:40;99857.41;;;19.04;37.88
19150;BME280;9707;49.158;8.632;2022-11-20T13:01:26;99859.16;;;19.05;36.73
19150;BME280;9707;49.158;8.632;2022-11-20T13:06:56;99855.69;;;19.03;36.70
19150;BME280;9707;49.158;8.632;2022-11-20T13:09:22;99852.88;;;19.04;36.64
19150;BME280;9707;49.158;8.632;2022-11-20T13:12:17;99860.88;;;19.06;36.95
19150;BME280;9707;49.158;8.632;2022-11-20T13:14:59;99851.78;;;19.07;36.54
19150;BME280;9707;49.158;8.632;2022-11-20T13:19:56;99840.00;;;19.08;37.00
19150;BME280;9707;49.158;8.632;2022-11-20T13:22:47;99840.00;;;19.08;36.38
19150;BME280;9707;49.158;8.632;2022-11-20T13:25:35;99839.16;;;19.07;35.88
19150;BME280;9707;49.158;8.632;2022-11-20T13:28:05;99832.16;;;19.05;35.54
19150;BME280;9707;49.158;8.632;2022-11-20T13:30:51;99834.84;;;19.05;35.65
19150;BME280;9707;49.158;8.632;2022-11-20T13:33:27;99831.28;;;19.04;35.37
19150;BME280;9707;49.158;8.632;2022-11-20T13:36:02;99823.19;;;19.04;35.42
19150;BME280;9707;49.158;8.632;2022-11-20T13:38:27;99818.78;;;19.03;35.80
19150;BME280;9707;49.158;8.632;2022-11-20T13:40:58;99821.38;;;19.05;35.90
19150;BME280;9707;49.158;8.632;2022-11-20T13:43:42;99823.06;;;19.06;36.18
19150;BME280;9707;49.158;8.632;2022-11-20T13:46:09;99813.13;;;19.06;35.80
19150;BME280;9707;49.158;8.632;2022-11-20T13:48:45;99813.97;;;19.07;35.86
19150;BME280;9707;49.158;8.632;2022-11-20T13:51:33;99811.16;;;19.08;35.93
19150;BME280;9707;49.158;8.632;2022-11-20T13:57:08;99813.97;;;19.07;34.85
19150;BME280;9707;49.158;8.632;2022-11-20T13:59:52;99813.13;;;19.06;34.86
19150;BME280;9707;49.158;8.632;2022-11-20T14:02:23;99809.56;;;19.06;34.96
19150;BME280;9707;49.158;8.632;2022-11-20T14:04:52;99813.97;;;19.07;34.06
19150;BME280;9707;49.158;8.632;2022-11-20T14:07:20;99810.28;;;19.08;33.82
19150;BME280;9707;49.158;8.632;2022-11-20T14:09:56;99814.97;;;19.06;33.95
19150;BME280;9707;49.158;8.632;2022-11-20T14:12:28;99813.28;;;19.05;34.07
19150;BME280;9707;49.158;8.632;2022-11-20T14:14:54;99801.59;;;19.04;34.21
19150;BME280;9707;49.158;8.632;2022-11-20T14:19:55;99806.88;;;19.06;33.83
19150;BME280;9707;49.158;8.632;2022-11-20T14:22:25;99798.03;;;19.04;33.74
19150;BME280;9707;49.158;8.632;2022-11-20T14:25:17;99802.72;;;19.02;34.27
19150;BME280;9707;49.158;8.632;2022-11-20T14:27:45;99806.41;;;19.01;33.92
19150;BME280;9707;49.158;8.632;2022-11-20T14:30:17;99805.69;;;18.99;33.97
19150;BME280;9707;49.158;8.632;2022-11-20T14:32:44;99797.59;;;18.99;34.14
19150;BME280;9707;49.158;8.632;2022-11-20T14:35:18;99799.41;;;18.98;34.02
19150;BME280;9707;49.158;8.632;2022-11-20T14:37:45;99794.88;;;18.99;34.39
19150;BME280;9707;49.158;8.632;2022-11-20T14:40:30;99797.59;;;18.99;34.37